createdAt,value
2023-02-13T00:00:35.301Z,13.54
2023-02-13T00:03:02.402Z,13.55
2023-02-13T00:05:29.465Z,13.54
2023-02-13T00:07:57.333Z,13.53
2023-02-13T00:10:25.631Z,13.51
2023-02-13T00:12:52.454Z,13.48
2023-02-13T00:15:19.492Z,13.47
2023-02-13T00:17:46.385Z,13.47
2023-02-13T00:20:13.679Z,13.47
2023-02-13T00:22:41.505Z,13.45
2023-02-13T00:25:09.187Z,13.44
2023-02-13T00:27:37.443Z,13.44
2023-02-13T00:30:06.803Z,13.44
2023-02-13T00:32:34.236Z,13.46
2023-02-13T00:35:01.103Z,13.44
2023-02-13T00:37:28.004Z,13.46
2023-02-13T00:39:56.143Z,13.46
2023-02-13T00:42:26.323Z,13.48
2023-02-13T00:44:55.044Z,13.48
2023-02-13T00:47:22.471Z,13.50
2023-02-13T00:49:49.434Z,13.51
2023-02-13T00:52:16.308Z,13.54
2023-02-13T00:54:43.227Z,13.56
2023-02-13T00:57:10.124Z,13.58
2023-02-13T00:59:37.006Z,13.56
2023-02-13T01:02:05.261Z,13.55
2023-02-13T01:04:32.604Z,13.54
2023-02-13T01:06:59.485Z,13.55
2023-02-13T01:09:26.463Z,13.58
2023-02-13T01:11:53.384Z,13.62
2023-02-13T01:14:20.268Z,13.65
2023-02-13T01:16:47.147Z,13.66
2023-02-13T01:19:15.726Z,13.69
2023-02-13T01:21:44.035Z,13.70
2023-02-13T01:24:11.255Z,13.66
2023-02-13T01:26:38.305Z,13.63
2023-02-13T01:29:05.291Z,13.64
2023-02-13T01:31:32.343Z,13.63
2023-02-13T01:34:00.071Z,13.62
2023-02-13T01:36:28.432Z,13.62
2023-02-13T01:38:57.728Z,13.60
2023-02-13T01:41:27.412Z,13.60
2023-02-13T01:43:57.378Z,13.58
2023-02-13T01:46:31.446Z,13.57
2023-02-13T01:49:03.238Z,13.55
2023-02-13T01:51:35.191Z,13.47
2023-02-13T01:54:10.519Z,13.39
2023-02-13T01:56:43.990Z,13.35
2023-02-13T01:59:16.903Z,13.28
2023-02-13T02:01:45.108Z,13.26
2023-02-13T02:04:19.766Z,13.25
2023-02-13T02:06:52.841Z,13.27
2023-02-13T02:09:25.587Z,13.30
2023-02-13T02:12:00.645Z,13.29
2023-02-13T02:14:28.171Z,13.29
2023-02-13T02:16:56.287Z,13.28
2023-02-13T02:19:37.864Z,13.26
2023-02-13T02:22:46.391Z,13.19
2023-02-13T02:26:14.645Z,13.15
2023-02-13T02:29:23.945Z,13.12
2023-02-13T02:32:15.953Z,13.13
2023-02-13T02:34:59.489Z,13.09
2023-02-13T02:37:46.142Z,13.05
2023-02-13T02:40:32.171Z,12.98
2023-02-13T02:43:18.242Z,12.92
2023-02-13T02:45:57.288Z,12.89
2023-02-13T02:48:52.256Z,12.83
2023-02-13T02:51:25.021Z,12.77
2023-02-13T02:54:03.389Z,12.76
2023-02-13T02:56:38.163Z,12.75
2023-02-13T02:59:30.834Z,12.74
2023-02-13T03:02:18.924Z,12.73
2023-02-13T03:05:11.526Z,12.73
2023-02-13T03:07:38.677Z,12.74
2023-02-13T03:10:28.191Z,12.79
2023-02-13T03:13:21.655Z,12.80
2023-02-13T03:16:10.107Z,12.78
2023-02-13T03:18:59.681Z,12.74
2023-02-13T03:22:03.389Z,12.70
2023-02-13T03:24:46.616Z,12.67
2023-02-13T03:27:59.623Z,12.65
2023-02-13T03:30:40.783Z,12.72
2023-02-13T03:33:27.425Z,12.73
2023-02-13T03:36:26.311Z,12.77
2023-02-13T03:39:02.742Z,12.77
2023-02-13T03:41:38.567Z,12.82
2023-02-13T03:44:16.035Z,12.86
2023-02-13T03:46:50.087Z,12.90
2023-02-13T03:49:41.387Z,12.95
2023-02-13T03:52:16.728Z,12.95
2023-02-13T03:55:11.346Z,13.01
2023-02-13T03:58:01.559Z,13.01
2023-02-13T04:00:38.862Z,12.93
2023-02-13T04:03:15.521Z,12.83
2023-02-13T04:05:48.331Z,12.81
2023-02-13T04:08:15.763Z,12.82
2023-02-13T04:10:52.765Z,12.87
2023-02-13T04:13:29.915Z,12.94
2023-02-13T04:16:03.140Z,13.00
2023-02-13T04:18:33.405Z,13.05
2023-02-13T04:21:03.662Z,13.07
2023-02-13T04:23:30.706Z,13.09
2023-02-13T04:26:03.779Z,13.10
2023-02-13T04:28:30.933Z,13.09
2023-02-13T04:30:58.592Z,13.10
2023-02-13T04:33:25.720Z,13.12
2023-02-13T04:35:52.626Z,13.16
2023-02-13T04:38:19.478Z,13.17
2023-02-13T04:40:46.368Z,13.21
2023-02-13T04:43:14.588Z,13.23
2023-02-13T04:45:41.537Z,13.20
2023-02-13T04:48:09.883Z,13.18
2023-02-13T04:50:36.740Z,13.15
2023-02-13T04:53:03.642Z,13.14
2023-02-13T04:55:30.766Z,13.17
2023-02-13T04:57:59.051Z,13.18
2023-02-13T05:00:29.990Z,13.20
2023-02-13T05:03:03.951Z,13.21
2023-02-13T05:05:30.861Z,13.20
2023-02-13T05:07:57.746Z,13.20
2023-02-13T05:10:24.758Z,13.21
2023-02-13T05:12:51.731Z,13.24
2023-02-13T05:15:18.829Z,13.27
2023-02-13T05:17:47.296Z,13.27
2023-02-13T05:20:15.703Z,13.28
2023-02-13T05:23:04.907Z,13.25
2023-02-13T05:25:32.214Z,13.22
2023-02-13T05:27:59.252Z,13.21
2023-02-13T05:30:26.405Z,13.20
2023-02-13T05:32:55.222Z,13.20
2023-02-13T05:35:23.164Z,13.19
2023-02-13T05:37:50.604Z,13.16
2023-02-13T05:40:17.981Z,13.14
2023-02-13T05:42:44.903Z,13.16
2023-02-13T05:45:11.819Z,13.16
2023-02-13T05:47:38.715Z,13.16
2023-02-13T05:50:09.108Z,13.14
2023-02-13T05:52:35.990Z,13.15
2023-02-13T05:55:02.891Z,13.17
2023-02-13T05:57:29.771Z,13.17
2023-02-13T05:59:56.629Z,13.18
2023-02-13T06:02:23.711Z,13.20
2023-02-13T06:04:50.685Z,13.21
2023-02-13T06:07:20.016Z,13.20
2023-02-13T06:09:46.875Z,13.21
2023-02-13T06:12:13.791Z,13.22
2023-02-13T06:14:40.764Z,13.24
2023-02-13T06:17:07.685Z,13.26
2023-02-13T06:19:34.548Z,13.29
2023-02-13T06:22:01.612Z,13.33
2023-02-13T06:24:29.827Z,13.32
2023-02-13T06:26:58.053Z,13.33
2023-02-13T06:29:25.117Z,13.34
2023-02-13T06:31:52.137Z,13.34
2023-02-13T06:34:19.038Z,13.31
2023-02-13T06:36:47.251Z,13.33
2023-02-13T06:39:14.430Z,13.35
2023-02-13T06:41:44.576Z,13.35
2023-02-13T06:44:11.477Z,13.36
2023-02-13T06:46:38.497Z,13.38
2023-02-13T06:49:05.477Z,13.39
2023-02-13T06:51:32.390Z,13.39
2023-02-13T06:53:59.285Z,13.37
2023-02-13T06:56:26.353Z,13.34
2023-02-13T06:58:54.558Z,13.33
2023-02-13T07:01:21.613Z,13.34
2023-02-13T07:03:48.706Z,13.36
2023-02-13T07:06:18.754Z,13.37
2023-02-13T07:08:46.180Z,13.40
2023-02-13T07:11:20.802Z,13.38
2023-02-13T07:13:47.810Z,13.38
2023-02-13T07:16:16.746Z,13.39
2023-02-13T07:18:44.060Z,13.35
2023-02-13T07:21:11.017Z,13.31
2023-02-13T07:23:38.241Z,13.27
2023-02-13T07:26:06.168Z,13.27
2023-02-13T07:28:33.284Z,13.27
2023-02-13T07:31:05.724Z,13.27
2023-02-13T07:33:35.673Z,13.28
2023-02-13T07:36:03.536Z,13.30
2023-02-13T07:38:31.603Z,13.35
2023-02-13T07:40:59.578Z,13.36
2023-02-13T07:43:27.101Z,13.37
2023-02-13T07:45:57.639Z,13.39
2023-02-13T07:48:28.313Z,13.40
2023-02-13T07:51:01.657Z,13.41
2023-02-13T07:53:29.262Z,13.45
2023-02-13T07:56:33.173Z,13.46
2023-02-13T07:59:00.059Z,13.43
2023-02-13T08:01:27.056Z,13.46
2023-02-13T08:03:54.037Z,13.52
2023-02-13T08:06:22.677Z,13.57
2023-02-13T08:09:09.652Z,13.61
2023-02-13T08:11:55.125Z,13.63
2023-02-13T08:14:26.178Z,13.61
2023-02-13T08:16:54.764Z,13.60
2023-02-13T08:19:22.011Z,13.58
2023-02-13T08:21:50.936Z,13.57
2023-02-13T08:24:18.555Z,13.59
2023-02-13T08:26:47.889Z,13.61
2023-02-13T08:29:16.955Z,13.66
2023-02-13T08:31:43.963Z,13.69
2023-02-13T08:34:11.722Z,13.70
2023-02-13T08:36:38.629Z,13.72
2023-02-13T08:39:08.732Z,13.76
2023-02-13T08:41:38.620Z,13.78
2023-02-13T08:44:05.747Z,13.81
2023-02-13T08:46:32.724Z,13.83
2023-02-13T08:48:59.665Z,13.89
2023-02-13T08:51:26.693Z,13.92
2023-02-13T08:53:53.675Z,13.92
2023-02-13T08:56:21.865Z,13.95
2023-02-13T08:58:50.059Z,13.99
2023-02-13T09:01:17.143Z,14.05
2023-02-13T09:03:44.242Z,14.11
2023-02-13T09:06:12.383Z,14.16
2023-02-13T09:08:39.709Z,14.20
2023-02-13T09:11:07.488Z,14.21
2023-02-13T09:13:37.104Z,14.21
2023-02-13T09:16:06.886Z,14.23
2023-02-13T09:18:35.254Z,14.26
2023-02-13T09:21:05.772Z,14.24
2023-02-13T09:23:34.626Z,14.25
2023-02-13T09:26:04.738Z,14.27
2023-02-13T09:28:33.849Z,14.28
2023-02-13T09:31:06.797Z,14.25
2023-02-13T09:33:34.914Z,14.26
2023-02-13T09:36:05.771Z,14.32
2023-02-13T09:38:33.055Z,14.34
2023-02-13T09:41:05.548Z,14.35
2023-02-13T09:43:37.727Z,14.31
2023-02-13T09:46:17.925Z,14.24
2023-02-13T09:48:51.407Z,14.26
2023-02-13T09:51:23.181Z,14.30
2023-02-13T09:53:56.284Z,14.35
2023-02-13T09:56:40.286Z,14.39
2023-02-13T09:59:26.379Z,14.41
2023-02-13T10:02:00.463Z,14.41
2023-02-13T10:04:42.176Z,14.41
2023-02-13T10:07:24.264Z,14.42
2023-02-13T10:10:01.186Z,14.45
2023-02-13T10:13:01.880Z,14.46
2023-02-13T10:15:39.790Z,14.47
2023-02-13T10:18:16.092Z,14.52
2023-02-13T10:20:50.476Z,14.57
2023-02-13T10:23:25.896Z,14.62
2023-02-13T10:25:59.949Z,14.62
2023-02-13T10:28:37.237Z,14.58
2023-02-13T10:31:11.658Z,14.55
2023-02-13T10:33:49.687Z,14.54
2023-02-13T10:36:20.930Z,14.58
2023-02-13T10:39:00.135Z,14.57
2023-02-13T10:41:47.583Z,14.56
2023-02-13T10:44:41.415Z,14.51
2023-02-13T10:47:28.267Z,14.50
2023-02-13T10:50:11.056Z,14.50
2023-02-13T10:52:53.767Z,14.47
2023-02-13T10:55:59.483Z,14.45
2023-02-13T10:58:41.707Z,14.50
2023-02-13T11:01:19.406Z,14.56
2023-02-13T11:03:49.716Z,14.59
2023-02-13T11:06:20.126Z,14.60
2023-02-13T11:08:48.208Z,14.60
2023-02-13T11:11:33.649Z,14.58
2023-02-13T11:14:12.933Z,14.62
2023-02-13T11:16:47.515Z,14.70
2023-02-13T11:19:24.014Z,14.73
2023-02-13T11:21:59.003Z,14.80
2023-02-13T11:24:28.471Z,14.86
2023-02-13T11:27:08.576Z,14.87
2023-02-13T11:29:38.014Z,14.86
2023-02-13T11:32:19.018Z,14.82
2023-02-13T11:34:47.910Z,14.82
2023-02-13T11:37:24.211Z,14.79
2023-02-13T11:39:54.434Z,14.79
2023-02-13T11:42:28.893Z,14.81
2023-02-13T11:45:00.821Z,14.86
2023-02-13T11:47:39.957Z,14.91
2023-02-13T11:50:24.617Z,14.95
2023-02-13T11:53:00.499Z,14.99
2023-02-13T11:55:34.380Z,14.95
2023-02-13T11:58:04.631Z,14.93
2023-02-13T12:00:39.894Z,14.95
2023-02-13T12:03:29.040Z,14.98
2023-02-13T12:06:06.858Z,14.99
2023-02-13T12:08:38.106Z,14.98
2023-02-13T12:11:21.037Z,14.93
2023-02-13T12:13:49.071Z,14.95
2023-02-13T12:16:34.960Z,14.96
2023-02-13T12:19:11.993Z,14.99
2023-02-13T12:22:06.082Z,15.03
2023-02-13T12:25:20.611Z,15.04
2023-02-13T12:28:10.577Z,15.08
2023-02-13T12:31:12.492Z,15.05
2023-02-13T12:34:09.525Z,15.00
2023-02-13T12:36:47.278Z,15.00
2023-02-13T12:39:26.194Z,15.01
2023-02-13T12:42:21.811Z,14.97
2023-02-13T12:45:21.281Z,14.89
2023-02-13T12:48:11.403Z,14.86
2023-02-13T12:50:57.254Z,14.87
2023-02-13T12:53:47.596Z,14.90
2023-02-13T12:56:59.385Z,14.89
2023-02-13T12:59:47.696Z,14.91
2023-02-13T13:03:01.424Z,14.90
2023-02-13T13:05:58.773Z,14.93
2023-02-13T13:08:55.279Z,14.93
2023-02-13T13:11:50.424Z,14.90
2023-02-13T13:14:32.898Z,14.90
2023-02-13T13:17:08.773Z,14.90
2023-02-13T13:19:44.010Z,14.88
2023-02-13T13:22:19.383Z,14.86
2023-02-13T13:25:04.538Z,14.85
2023-02-13T13:27:39.784Z,14.85
2023-02-13T13:30:17.834Z,14.81
2023-02-13T13:32:48.481Z,14.76
2023-02-13T13:35:16.214Z,14.72
2023-02-13T13:38:02.364Z,14.70
2023-02-13T13:40:44.216Z,14.69
2023-02-13T13:43:26.643Z,14.71
2023-02-13T13:46:15.186Z,14.71
2023-02-13T13:49:06.678Z,14.71
2023-02-13T13:51:34.215Z,14.73
2023-02-13T13:54:25.550Z,14.71
2023-02-13T13:57:12.887Z,14.70
2023-02-13T14:00:28.210Z,14.66
2023-02-13T14:03:37.031Z,14.66
2023-02-13T14:06:08.220Z,14.72
2023-02-13T14:09:32.334Z,14.70
2023-02-13T14:12:45.103Z,14.68
2023-02-13T14:15:50.216Z,14.69
2023-02-13T14:18:23.174Z,14.74
2023-02-13T14:20:59.439Z,14.78
2023-02-13T14:23:53.410Z,14.79
2023-02-13T14:26:39.332Z,14.78
2023-02-13T14:29:25.671Z,14.78
2023-02-13T14:32:15.919Z,14.78
2023-02-13T14:34:52.894Z,14.76
2023-02-13T14:37:30.824Z,14.78
2023-02-13T14:40:46.598Z,14.75
2023-02-13T14:43:35.092Z,14.78
2023-02-13T14:46:22.705Z,14.79
2023-02-13T14:48:57.305Z,14.78
2023-02-13T14:51:34.115Z,14.75
2023-02-13T14:54:20.246Z,14.73
2023-02-13T14:56:53.487Z,14.74
2023-02-13T14:59:26.352Z,14.78
2023-02-13T15:02:01.105Z,14.82
2023-02-13T15:04:35.320Z,14.88
2023-02-13T15:07:06.869Z,14.86
2023-02-13T15:09:40.153Z,14.85
2023-02-13T15:12:27.827Z,14.85
2023-02-13T15:14:55.159Z,14.89
2023-02-13T15:17:26.475Z,14.84
2023-02-13T15:19:55.898Z,14.81
2023-02-13T15:22:32.849Z,14.76
2023-02-13T15:25:01.556Z,14.77
2023-02-13T15:27:31.581Z,14.73
2023-02-13T15:30:04.108Z,14.70
2023-02-13T15:32:36.864Z,14.66
2023-02-13T15:35:22.393Z,14.60
2023-02-13T15:37:49.320Z,14.58
2023-02-13T15:40:25.685Z,14.52
2023-02-13T15:42:55.152Z,14.50
2023-02-13T15:45:25.323Z,14.45
2023-02-13T15:47:55.361Z,14.43
2023-02-13T15:50:30.832Z,14.41
2023-02-13T15:53:00.139Z,14.38
2023-02-13T15:55:31.930Z,14.33
2023-02-13T15:58:01.739Z,14.24
2023-02-13T16:00:33.514Z,14.21
2023-02-13T16:03:04.786Z,14.20
2023-02-13T16:05:41.439Z,14.20
2023-02-13T16:08:33.673Z,14.19
2023-02-13T16:11:30.559Z,14.19
2023-02-13T16:14:15.619Z,14.21
2023-02-13T16:16:48.871Z,14.21
2023-02-13T16:19:44.990Z,14.19
2023-02-13T16:22:27.857Z,14.20
2023-02-13T16:25:07.570Z,14.20
2023-02-13T16:27:43.193Z,14.19
2023-02-13T16:30:30.704Z,14.13
2023-02-13T16:33:29.360Z,14.04
2023-02-13T16:35:59.551Z,14.04
2023-02-13T16:38:32.781Z,14.00
2023-02-13T16:41:05.846Z,13.97
2023-02-13T16:43:45.894Z,13.93
2023-02-13T16:46:20.159Z,13.90
2023-02-13T16:49:03.440Z,13.87
2023-02-13T16:51:39.985Z,13.86
2023-02-13T16:54:20.449Z,13.87
2023-02-13T16:56:50.274Z,13.91
2023-02-13T16:59:54.068Z,13.89
2023-02-13T17:02:24.310Z,13.91
2023-02-13T17:04:55.180Z,13.91
2023-02-13T17:07:25.769Z,13.88
2023-02-13T17:09:56.399Z,13.87
2023-02-13T17:12:24.961Z,13.88
2023-02-13T17:14:53.461Z,13.91
2023-02-13T17:17:23.207Z,13.95
2023-02-13T17:19:51.060Z,13.99
2023-02-13T17:22:35.525Z,13.98
2023-02-13T17:25:06.386Z,14.00
2023-02-13T17:27:33.778Z,14.01
2023-02-13T17:30:02.406Z,14.00
2023-02-13T17:32:29.891Z,14.00
2023-02-13T17:34:56.821Z,14.51
2023-02-13T17:37:26.995Z,14.24
2023-02-13T17:39:54.854Z,14.14
2023-02-13T17:42:26.075Z,14.06
2023-02-13T17:44:54.501Z,14.00
2023-02-13T17:47:24.443Z,13.93
2023-02-13T17:49:59.175Z,13.97
2023-02-13T17:52:32.291Z,14.31
2023-02-13T17:54:59.248Z,14.11
2023-02-13T17:57:26.171Z,14.04
2023-02-13T17:59:53.111Z,14.01
2023-02-13T18:02:23.772Z,13.99
2023-02-13T18:04:51.036Z,13.97
2023-02-13T18:07:21.107Z,13.96
2023-02-13T18:09:48.268Z,13.95
2023-02-13T18:12:18.879Z,13.96
2023-02-13T18:14:46.784Z,13.97
2023-02-13T18:17:14.353Z,13.96
2023-02-13T18:19:42.769Z,13.98
2023-02-13T18:22:11.284Z,13.97
2023-02-13T18:24:41.771Z,13.97
2023-02-13T18:27:13.000Z,13.98
2023-02-13T18:29:40.143Z,13.96
2023-02-13T18:32:10.216Z,13.94
2023-02-13T18:34:38.974Z,13.94
2023-02-13T18:37:08.586Z,13.93
2023-02-13T18:39:35.606Z,13.92
2023-02-13T18:42:02.604Z,13.93
2023-02-13T18:44:29.534Z,14.18
2023-02-13T18:46:56.632Z,14.05
2023-02-13T18:49:23.534Z,14.02
2023-02-13T18:51:50.657Z,14.00
2023-02-13T18:54:18.955Z,14.00
2023-02-13T18:56:46.127Z,13.99
2023-02-13T18:59:13.271Z,13.97
2023-02-13T19:01:40.820Z,13.96
2023-02-13T19:04:07.745Z,13.94
2023-02-13T19:06:34.987Z,13.92
2023-02-13T19:09:01.925Z,13.90
2023-02-13T19:11:34.066Z,13.86
2023-02-13T19:14:02.319Z,13.86
2023-02-13T19:16:31.615Z,13.85
2023-02-13T19:19:01.209Z,13.86
2023-02-13T19:21:32.021Z,13.83
2023-02-13T19:23:58.987Z,13.82
2023-02-13T19:26:27.679Z,13.80
2023-02-13T19:28:57.062Z,13.80
2023-02-13T19:31:27.198Z,13.80
2023-02-13T19:33:54.787Z,13.81
2023-02-13T19:36:24.334Z,13.82
2023-02-13T19:38:56.625Z,13.83
2023-02-13T19:41:24.182Z,13.83
2023-02-13T19:43:53.359Z,13.85
2023-02-13T19:46:24.404Z,13.83
2023-02-13T19:48:51.795Z,13.83
2023-02-13T19:51:22.005Z,13.83
2023-02-13T19:53:48.972Z,13.79
2023-02-13T19:56:16.297Z,13.78
2023-02-13T19:58:43.317Z,13.77
2023-02-13T20:01:13.572Z,13.74
2023-02-13T20:03:43.084Z,13.72
2023-02-13T20:06:13.264Z,13.70
2023-02-13T20:08:43.079Z,13.72
2023-02-13T20:11:13.334Z,13.73
2023-02-13T20:13:40.611Z,13.72
2023-02-13T20:16:11.127Z,13.73
2023-02-13T20:18:39.605Z,13.72
2023-02-13T20:21:10.794Z,13.65
2023-02-13T20:23:38.386Z,13.61
2023-02-13T20:26:07.624Z,13.57
2023-02-13T20:28:34.594Z,13.52
2023-02-13T20:31:03.880Z,13.48
2023-02-13T20:33:31.161Z,13.44
2023-02-13T20:35:58.073Z,13.39
2023-02-13T20:38:26.399Z,13.34
2023-02-13T20:40:53.258Z,13.26
2023-02-13T20:43:21.327Z,13.20
2023-02-13T20:45:48.271Z,13.12
2023-02-13T20:48:15.159Z,13.04
2023-02-13T20:50:42.118Z,12.94
2023-02-13T20:53:10.021Z,12.87
2023-02-13T20:55:38.357Z,12.80
2023-02-13T20:58:05.235Z,12.74
2023-02-13T21:00:32.237Z,12.67
2023-02-13T21:02:59.186Z,12.62
2023-02-13T21:05:26.188Z,12.57
2023-02-13T21:07:53.084Z,12.52
2023-02-13T21:10:19.949Z,12.48
2023-02-13T21:12:48.249Z,12.45
2023-02-13T21:15:15.321Z,12.42
2023-02-13T21:17:42.228Z,12.38
2023-02-13T21:20:10.459Z,12.35
2023-02-13T21:22:37.398Z,12.31
2023-02-13T21:25:04.841Z,12.28
2023-02-13T21:27:31.720Z,12.26
2023-02-13T21:30:00.066Z,12.22
2023-02-13T21:32:27.032Z,12.19
2023-02-13T21:34:56.067Z,12.17
2023-02-13T21:37:22.972Z,12.14
2023-02-13T21:39:49.879Z,12.12
2023-02-13T21:42:16.777Z,12.11
2023-02-13T21:44:43.639Z,12.10
2023-02-13T21:47:11.954Z,12.06
2023-02-13T21:49:38.839Z,12.02
2023-02-13T21:52:05.867Z,12.00
2023-02-13T21:54:32.776Z,11.97
2023-02-13T21:57:00.005Z,11.95
2023-02-13T21:59:27.205Z,11.92
2023-02-13T22:01:54.935Z,11.90
2023-02-13T22:04:23.434Z,11.88
2023-02-13T22:06:52.607Z,11.87
2023-02-13T22:09:21.909Z,11.85
2023-02-13T22:11:51.469Z,11.84
2023-02-13T22:14:18.972Z,11.82
2023-02-13T22:16:50.108Z,11.80
2023-02-13T22:19:17.976Z,11.77
2023-02-13T22:21:46.248Z,11.76
2023-02-13T22:24:13.440Z,11.72
2023-02-13T22:26:45.036Z,11.71
2023-02-13T22:29:14.169Z,11.69
2023-02-13T22:31:41.742Z,11.66
2023-02-13T22:34:13.490Z,11.62
2023-02-13T22:36:41.207Z,11.59
2023-02-13T22:39:11.139Z,11.54
2023-02-13T22:41:38.136Z,11.50
2023-02-13T22:44:05.366Z,11.46
2023-02-13T22:46:34.334Z,11.43
2023-02-13T22:49:01.858Z,11.38
2023-02-13T22:51:33.185Z,11.35
2023-02-13T22:54:00.631Z,11.34
2023-02-13T22:56:30.580Z,11.33
2023-02-13T22:58:57.595Z,11.32
2023-02-13T23:01:27.180Z,11.30
2023-02-13T23:03:55.466Z,11.28
2023-02-13T23:06:23.347Z,11.26
2023-02-13T23:08:52.628Z,11.22
2023-02-13T23:11:40.706Z,11.20
2023-02-13T23:14:10.203Z,11.16
2023-02-13T23:16:57.902Z,11.14
2023-02-13T23:19:25.457Z,11.09
2023-02-13T23:21:52.364Z,11.09
2023-02-13T23:24:19.259Z,11.07
2023-02-13T23:26:46.154Z,11.05
2023-02-13T23:29:14.459Z,11.04
2023-02-13T23:31:41.474Z,11.02
2023-02-13T23:34:08.487Z,11.01
2023-02-13T23:36:35.432Z,11.02
2023-02-13T23:39:02.546Z,10.99
2023-02-13T23:41:29.548Z,10.99
2023-02-13T23:43:56.449Z,10.97
2023-02-13T23:46:24.779Z,10.96
2023-02-13T23:48:51.695Z,10.95
2023-02-13T23:51:18.694Z,10.93
2023-02-13T23:53:45.762Z,10.92
2023-02-13T23:56:12.616Z,10.89
2023-02-13T23:58:39.522Z,10.88
